createdAt,value
2023-05-04T00:02:24.560Z,2.68
2023-05-04T00:04:54.436Z,2.62
2023-05-04T00:07:23.531Z,2.70
2023-05-04T00:09:51.013Z,2.76
2023-05-04T00:12:18.233Z,2.68
2023-05-04T00:14:44.921Z,2.75
2023-05-04T00:17:12.689Z,2.80
2023-05-04T00:19:42.029Z,2.88
2023-05-04T00:22:09.179Z,2.89
2023-05-04T00:24:35.913Z,2.87
2023-05-04T00:27:02.684Z,2.82
2023-05-04T00:29:30.085Z,2.81
2023-05-04T00:31:57.284Z,2.77
2023-05-04T00:34:24.330Z,2.76
2023-05-04T00:36:51.098Z,2.74
2023-05-04T00:39:17.884Z,2.68
2023-05-04T00:41:45.821Z,2.50
2023-05-04T00:44:12.978Z,2.59
2023-05-04T00:46:42.747Z,2.58
2023-05-04T00:49:10.046Z,2.65
2023-05-04T00:51:37.106Z,2.66
2023-05-04T00:54:05.090Z,2.59
2023-05-04T00:56:33.176Z,2.29
2023-05-04T00:58:59.877Z,2.17
2023-05-04T01:01:27.244Z,2.27
2023-05-04T01:03:55.556Z,2.37
2023-05-04T01:06:38.784Z,2.44
2023-05-04T01:09:19.686Z,2.43
2023-05-04T01:12:14.609Z,2.33
2023-05-04T01:14:43.283Z,2.36
2023-05-04T01:17:11.622Z,2.36
2023-05-04T01:19:41.067Z,2.35
2023-05-04T01:22:07.735Z,2.13
2023-05-04T01:24:34.852Z,2.15
2023-05-04T01:27:09.347Z,2.19
2023-05-04T01:29:56.521Z,2.06
2023-05-04T01:32:24.516Z,2.12
2023-05-04T01:34:51.233Z,2.18
2023-05-04T01:37:17.901Z,2.10
2023-05-04T01:39:44.566Z,1.94
2023-05-04T01:42:11.276Z,1.98
2023-05-04T01:44:38.632Z,2.03
2023-05-04T01:47:05.465Z,1.89
2023-05-04T01:49:32.272Z,1.66
2023-05-04T01:51:59.053Z,1.67
2023-05-04T01:54:25.971Z,1.83
2023-05-04T01:56:52.754Z,1.94
2023-05-04T01:59:19.420Z,2.02
2023-05-04T02:01:46.211Z,2.06
2023-05-04T02:04:12.949Z,1.97
2023-05-04T02:06:39.669Z,1.69
2023-05-04T02:09:06.991Z,1.69
2023-05-04T02:11:33.716Z,1.79
2023-05-04T02:14:00.401Z,1.80
2023-05-04T02:16:27.131Z,1.74
2023-05-04T02:18:53.865Z,1.68
2023-05-04T02:21:20.824Z,1.65
2023-05-04T02:23:47.533Z,1.70
2023-05-04T02:26:14.197Z,1.67
2023-05-04T02:28:40.859Z,1.71
2023-05-04T02:31:07.734Z,1.71
2023-05-04T02:33:34.505Z,1.59
2023-05-04T02:36:01.233Z,1.62
2023-05-04T02:38:27.969Z,1.73
2023-05-04T02:40:54.927Z,1.78
2023-05-04T02:43:21.616Z,1.83
2023-05-04T02:45:48.386Z,1.74
2023-05-04T02:48:15.145Z,1.63
2023-05-04T02:50:41.854Z,1.42
2023-05-04T02:53:08.527Z,1.38
2023-05-04T02:55:35.221Z,1.51
2023-05-04T02:58:01.950Z,1.59
2023-05-04T03:00:28.613Z,1.67
2023-05-04T03:02:55.389Z,1.67
2023-05-04T03:05:22.332Z,1.51
2023-05-04T03:07:49.023Z,1.28
2023-05-04T03:10:15.848Z,1.25
2023-05-04T03:12:42.615Z,1.39
2023-05-04T03:15:09.437Z,1.47
2023-05-04T03:17:36.685Z,1.57
2023-05-04T03:20:04.207Z,1.53
2023-05-04T03:22:31.100Z,1.60
2023-05-04T03:24:57.798Z,1.63
2023-05-04T03:27:24.602Z,1.54
2023-05-04T03:29:53.539Z,1.40
2023-05-04T03:32:20.727Z,1.52
2023-05-04T03:34:47.456Z,1.55
2023-05-04T03:37:14.237Z,1.57
2023-05-04T03:39:41.291Z,1.61
2023-05-04T03:42:08.128Z,1.65
2023-05-04T03:44:34.902Z,1.56
2023-05-04T03:47:01.617Z,1.65
2023-05-04T03:49:28.320Z,1.70
2023-05-04T03:51:54.988Z,1.66
2023-05-04T03:54:21.650Z,1.75
2023-05-04T03:56:48.349Z,1.94
2023-05-04T03:59:15.000Z,1.86
2023-05-04T04:01:41.695Z,2.01
2023-05-04T04:04:08.462Z,2.16
2023-05-04T04:06:35.464Z,2.15
2023-05-04T04:09:02.115Z,2.27
2023-05-04T04:11:28.769Z,2.47
2023-05-04T04:13:55.939Z,2.41
2023-05-04T04:16:22.967Z,2.51
2023-05-04T04:18:52.166Z,2.63
2023-05-04T04:21:18.910Z,2.35
2023-05-04T04:23:45.592Z,2.33
2023-05-04T04:26:12.287Z,2.52
2023-05-04T04:28:38.954Z,2.65
2023-05-04T04:31:05.680Z,2.78
2023-05-04T04:33:32.930Z,2.94
2023-05-04T04:35:59.766Z,2.92
2023-05-04T04:38:26.826Z,2.87
2023-05-04T04:40:53.529Z,2.95
2023-05-04T04:43:20.512Z,2.99
2023-05-04T04:45:47.245Z,3.12
2023-05-04T04:48:14.577Z,3.23
2023-05-04T04:50:41.426Z,3.03
2023-05-04T04:53:08.161Z,3.03
2023-05-04T04:55:34.891Z,3.32
2023-05-04T04:58:01.702Z,3.30
2023-05-04T05:00:28.712Z,3.10
2023-05-04T05:02:55.626Z,3.05
2023-05-04T05:05:22.388Z,3.14
2023-05-04T05:07:49.070Z,3.48
2023-05-04T05:10:17.841Z,3.83
2023-05-04T05:12:44.899Z,4.08
2023-05-04T05:15:11.939Z,4.17
2023-05-04T05:17:39.296Z,4.62
2023-05-04T05:20:10.829Z,4.78
2023-05-04T05:22:41.277Z,4.80
2023-05-04T05:25:08.554Z,4.51
2023-05-04T05:27:35.481Z,4.58
2023-05-04T05:30:06.338Z,4.65
2023-05-04T05:32:33.621Z,4.66
2023-05-04T05:35:00.355Z,4.82
2023-05-04T05:37:27.705Z,5.25
2023-05-04T05:39:54.381Z,5.22
2023-05-04T05:42:21.450Z,5.15
2023-05-04T05:44:48.278Z,5.26
2023-05-04T05:47:15.038Z,5.40
2023-05-04T05:49:46.194Z,5.53
2023-05-04T05:52:13.202Z,5.66
2023-05-04T05:54:39.971Z,5.78
2023-05-04T05:57:06.728Z,5.86
2023-05-04T05:59:33.428Z,6.09
2023-05-04T06:02:00.295Z,6.36
2023-05-04T06:04:27.012Z,6.55
2023-05-04T06:06:53.708Z,6.78
2023-05-04T06:09:21.110Z,6.97
2023-05-04T06:11:47.928Z,7.09
2023-05-04T06:14:14.653Z,7.28
2023-05-04T06:16:41.442Z,7.40
2023-05-04T06:19:41.645Z,7.64
2023-05-04T06:22:08.551Z,8.18
2023-05-04T06:24:35.443Z,9.59
2023-05-04T06:27:02.760Z,12.31
2023-05-04T06:29:29.647Z,14.31
2023-05-04T06:31:58.972Z,14.07
2023-05-04T06:34:25.949Z,15.55
2023-05-04T06:36:52.847Z,15.85
2023-05-04T06:39:20.016Z,15.87
2023-05-04T06:41:47.128Z,15.45
2023-05-04T06:44:17.804Z,16.16
2023-05-04T06:46:44.605Z,17.47
2023-05-04T06:49:13.554Z,16.52
2023-05-04T06:51:40.375Z,13.81
2023-05-04T06:54:07.237Z,14.22
2023-05-04T06:56:34.573Z,16.04
2023-05-04T06:59:01.543Z,15.74
2023-05-04T07:01:28.407Z,15.95
2023-05-04T07:03:58.371Z,16.36
2023-05-04T07:06:28.626Z,15.13
2023-05-04T07:08:55.460Z,14.64
2023-05-04T07:11:22.194Z,14.60
2023-05-04T07:13:49.981Z,13.82
2023-05-04T07:16:16.804Z,13.95
2023-05-04T07:18:43.548Z,13.25
2023-05-04T07:21:26.973Z,13.05
2023-05-04T07:23:55.279Z,13.33
2023-05-04T07:26:23.320Z,13.29
2023-05-04T07:28:50.522Z,13.09
2023-05-04T07:31:17.692Z,12.77
2023-05-04T07:33:44.921Z,12.84
2023-05-04T07:36:13.853Z,13.10
2023-05-04T07:38:41.606Z,13.26
2023-05-04T07:41:09.117Z,13.11
2023-05-04T07:43:37.248Z,13.39
2023-05-04T07:46:10.554Z,13.53
2023-05-04T07:51:21.683Z,12.85
2023-05-04T07:53:48.294Z,13.36
2023-05-04T07:56:14.940Z,13.53
2023-05-04T07:58:42.052Z,13.54
2023-05-04T08:01:08.813Z,13.65
2023-05-04T08:03:35.828Z,13.77
2023-05-04T08:06:02.552Z,13.62
2023-05-04T08:08:29.283Z,13.72
2023-05-04T08:11:02.025Z,13.69
2023-05-04T08:13:35.059Z,13.74
2023-05-04T08:16:01.881Z,13.90
2023-05-04T08:18:28.676Z,14.02
2023-05-04T08:20:55.349Z,14.38
2023-05-04T08:23:22.265Z,14.12
2023-05-04T08:25:49.009Z,14.14
2023-05-04T08:28:18.361Z,14.07
2023-05-04T08:30:45.054Z,13.99
2023-05-04T08:33:12.089Z,13.90
2023-05-04T08:35:40.396Z,13.99
2023-05-04T08:38:10.134Z,14.31
2023-05-04T08:40:40.403Z,14.09
2023-05-04T08:43:07.557Z,14.08
2023-05-04T08:45:38.669Z,14.11
2023-05-04T08:48:09.555Z,14.57
2023-05-04T08:50:37.874Z,14.18
2023-05-04T08:53:13.785Z,14.20
2023-05-04T08:55:42.893Z,14.74
2023-05-04T08:58:14.185Z,15.39
2023-05-04T09:00:43.463Z,15.12
2023-05-04T09:03:11.305Z,15.72
2023-05-04T09:05:38.406Z,15.53
2023-05-04T09:08:06.496Z,15.81
2023-05-04T09:10:34.226Z,16.18
2023-05-04T09:13:01.013Z,15.68
2023-05-04T09:15:27.711Z,16.03
2023-05-04T09:17:57.981Z,15.80
2023-05-04T09:20:26.070Z,15.96
2023-05-04T09:23:07.783Z,15.51
2023-05-04T09:25:47.422Z,16.05
2023-05-04T09:28:14.876Z,15.67
2023-05-04T09:30:41.740Z,15.57
2023-05-04T09:33:09.276Z,16.25
2023-05-04T09:35:39.343Z,16.80
2023-05-04T09:38:07.374Z,16.85
2023-05-04T09:40:40.899Z,16.30
2023-05-04T09:43:08.712Z,15.59
2023-05-04T09:45:42.792Z,15.84
2023-05-04T09:48:20.521Z,15.03
2023-05-04T09:50:49.658Z,15.41
2023-05-04T09:53:18.153Z,15.14
2023-05-04T09:55:47.710Z,15.33
2023-05-04T09:58:16.808Z,15.39
2023-05-04T10:00:44.364Z,15.51
2023-05-04T10:03:12.235Z,15.56
2023-05-04T10:05:39.116Z,15.00
2023-05-04T10:08:06.607Z,15.25
2023-05-04T10:10:33.922Z,15.33
2023-05-04T10:13:00.679Z,15.31
2023-05-04T10:15:28.266Z,15.19
2023-05-04T10:17:54.969Z,15.24
2023-05-04T10:20:53.759Z,15.23
2023-05-04T10:23:50.955Z,15.06
2023-05-04T10:26:30.008Z,15.41
2023-05-04T10:29:23.483Z,15.37
2023-05-04T10:31:51.685Z,15.59
2023-05-04T10:34:28.752Z,15.61
2023-05-04T10:36:56.321Z,15.81
2023-05-04T10:39:26.498Z,16.03
2023-05-04T10:42:08.804Z,15.68
2023-05-04T10:44:37.527Z,15.34
2023-05-04T10:47:07.155Z,15.75
2023-05-04T10:49:35.618Z,15.17
2023-05-04T10:52:15.963Z,15.24
2023-05-04T10:54:43.584Z,15.45
2023-05-04T10:57:12.651Z,15.99
2023-05-04T10:59:40.495Z,15.52
2023-05-04T11:02:07.789Z,15.63
2023-05-04T11:04:35.101Z,15.30
2023-05-04T11:07:06.436Z,15.14
2023-05-04T11:09:42.072Z,15.24
2023-05-04T11:12:12.204Z,15.01
2023-05-04T11:14:43.300Z,15.07
2023-05-04T11:19:53.656Z,15.60
2023-05-04T11:22:20.599Z,16.05
2023-05-04T11:24:48.862Z,15.71
2023-05-04T11:27:27.561Z,16.01
2023-05-04T11:29:58.590Z,16.24
2023-05-04T11:32:40.547Z,16.37
2023-05-04T11:35:09.742Z,15.88
2023-05-04T11:37:41.290Z,16.05
2023-05-04T11:40:17.511Z,15.98
2023-05-04T11:42:44.872Z,15.80
2023-05-04T11:45:11.503Z,15.74
2023-05-04T11:47:38.783Z,15.83
2023-05-04T11:50:07.396Z,16.17
2023-05-04T11:52:36.424Z,16.41
2023-05-04T11:55:03.540Z,16.76
2023-05-04T11:57:33.163Z,16.17
2023-05-04T11:59:59.866Z,15.86
2023-05-04T12:02:30.609Z,15.91
2023-05-04T12:04:57.375Z,15.98
2023-05-04T12:07:24.172Z,15.96
2023-05-04T12:09:51.114Z,16.38
2023-05-04T12:12:20.423Z,16.46
2023-05-04T12:14:58.069Z,15.83
2023-05-04T12:17:24.830Z,15.81
2023-05-04T12:19:52.285Z,16.18
2023-05-04T12:22:27.883Z,15.79
2023-05-04T12:24:57.990Z,15.38
2023-05-04T12:27:25.438Z,15.61
2023-05-04T12:29:52.447Z,15.28
2023-05-04T12:32:19.869Z,15.41
2023-05-04T12:34:46.803Z,15.41
2023-05-04T12:37:13.434Z,15.63
2023-05-04T12:39:40.150Z,15.21
2023-05-04T12:42:06.801Z,15.28
2023-05-04T12:44:34.517Z,15.39
2023-05-04T12:47:01.548Z,15.31
2023-05-04T12:49:28.307Z,15.31
2023-05-04T12:51:54.999Z,15.30
2023-05-04T12:54:21.951Z,15.46
2023-05-04T12:56:50.889Z,15.20
2023-05-04T12:59:17.571Z,15.19
2023-05-04T13:01:44.438Z,15.23
2023-05-04T13:04:11.185Z,15.20
2023-05-04T13:06:37.939Z,15.24
2023-05-04T13:09:06.050Z,15.46
2023-05-04T13:11:32.957Z,15.42
2023-05-04T13:13:59.656Z,15.69
2023-05-04T13:16:28.087Z,15.87
2023-05-04T13:18:55.526Z,15.61
2023-05-04T13:21:22.304Z,15.89
2023-05-04T13:23:48.992Z,15.32
2023-05-04T13:26:15.766Z,15.23
2023-05-04T13:28:42.598Z,15.46
2023-05-04T13:31:09.835Z,15.70
2023-05-04T13:33:39.416Z,15.26
2023-05-04T13:36:07.039Z,15.18
2023-05-04T13:38:33.806Z,15.04
2023-05-04T13:41:00.555Z,15.18
2023-05-04T13:43:28.325Z,15.63
2023-05-04T13:45:57.087Z,15.75
2023-05-04T13:48:25.733Z,15.82
2023-05-04T13:50:52.771Z,15.39
2023-05-04T13:53:19.527Z,15.30
2023-05-04T13:55:46.900Z,15.16
2023-05-04T13:58:13.573Z,14.95
2023-05-04T14:00:40.352Z,14.76
2023-05-04T14:03:07.241Z,14.91
2023-05-04T14:05:35.478Z,15.14
2023-05-04T14:08:02.293Z,15.39
2023-05-04T14:10:30.247Z,15.09
2023-05-04T14:12:56.964Z,14.98
2023-05-04T14:15:23.941Z,15.15
2023-05-04T14:17:50.750Z,14.99
2023-05-04T14:20:18.084Z,14.93
2023-05-04T14:22:45.078Z,14.81
2023-05-04T14:25:12.786Z,14.51
2023-05-04T14:27:39.532Z,14.35
2023-05-04T14:30:09.382Z,14.26
2023-05-04T14:32:36.531Z,14.31
2023-05-04T14:35:08.193Z,14.45
2023-05-04T14:37:37.484Z,14.43
2023-05-04T14:40:06.494Z,14.24
2023-05-04T14:42:33.728Z,14.14
2023-05-04T14:45:00.522Z,14.32
2023-05-04T14:47:28.702Z,14.40
2023-05-04T14:49:55.587Z,14.24
2023-05-04T14:52:22.276Z,14.27
2023-05-04T14:54:49.000Z,14.12
2023-05-04T14:57:19.043Z,14.24
2023-05-04T14:59:45.763Z,14.28
2023-05-04T15:02:12.645Z,14.71
2023-05-04T15:04:39.450Z,14.65
2023-05-04T15:07:06.145Z,14.38
2023-05-04T15:09:32.833Z,14.13
2023-05-04T15:11:59.581Z,13.97
2023-05-04T15:14:26.583Z,14.07
2023-05-04T15:16:53.362Z,14.12
2023-05-04T15:19:21.173Z,14.24
2023-05-04T15:21:49.328Z,14.04
2023-05-04T15:24:16.032Z,14.06
2023-05-04T15:26:42.721Z,14.15
2023-05-04T15:29:09.407Z,14.23
2023-05-04T15:31:36.187Z,14.05
2023-05-04T15:34:02.931Z,14.04
2023-05-04T15:36:31.709Z,14.02
2023-05-04T15:38:58.494Z,13.92
2023-05-04T15:41:25.161Z,14.00
2023-05-04T15:43:51.928Z,13.82
2023-05-04T15:46:18.647Z,13.86
2023-05-04T15:48:45.467Z,14.01
2023-05-04T15:51:12.375Z,13.85
2023-05-04T15:53:39.949Z,13.58
2023-05-04T15:56:06.674Z,13.61
2023-05-04T15:58:33.567Z,13.67
2023-05-04T16:01:03.788Z,13.53
2023-05-04T16:03:31.661Z,13.66
2023-05-04T16:06:01.173Z,13.82
2023-05-04T16:08:28.046Z,13.78
2023-05-04T16:10:56.222Z,13.86
2023-05-04T16:13:23.112Z,13.61
2023-05-04T16:15:53.296Z,13.69
2023-05-04T16:18:21.400Z,13.68
2023-05-04T16:20:48.570Z,13.70
2023-05-04T16:23:17.353Z,13.77
2023-05-04T16:25:44.505Z,13.84
2023-05-04T16:28:11.839Z,13.51
2023-05-04T16:30:38.947Z,13.50
2023-05-04T16:33:05.774Z,13.49
2023-05-04T16:35:34.870Z,13.36
2023-05-04T16:38:01.536Z,13.29
2023-05-04T16:40:28.296Z,13.27
2023-05-04T16:42:55.005Z,13.28
2023-05-04T16:45:24.696Z,13.21
2023-05-04T16:47:52.239Z,13.16
2023-05-04T16:50:18.887Z,13.16
2023-05-04T16:52:45.660Z,13.01
2023-05-04T16:55:12.707Z,13.03
2023-05-04T16:57:39.801Z,12.95
2023-05-04T17:00:07.759Z,12.81
2023-05-04T17:02:35.416Z,12.90
2023-05-04T17:05:04.641Z,12.89
2023-05-04T17:07:31.329Z,12.91
2023-05-04T17:09:58.067Z,12.87
2023-05-04T17:12:27.486Z,12.81
2023-05-04T17:14:54.433Z,12.68
2023-05-04T17:17:21.488Z,12.62
2023-05-04T17:19:48.156Z,12.46
2023-05-04T17:22:15.061Z,12.46
2023-05-04T17:24:44.105Z,12.54
2023-05-04T17:27:12.610Z,12.52
2023-05-04T17:29:41.014Z,12.58
2023-05-04T17:32:10.645Z,12.51
2023-05-04T17:34:37.737Z,12.45
2023-05-04T17:37:04.501Z,12.38
2023-05-04T17:39:31.750Z,12.54
2023-05-04T17:41:58.855Z,12.53
2023-05-04T17:44:26.117Z,12.48
2023-05-04T17:46:52.827Z,12.40
2023-05-04T17:49:19.643Z,12.31
2023-05-04T17:51:49.069Z,12.42
2023-05-04T17:54:16.513Z,12.08
2023-05-04T17:56:43.230Z,12.11
2023-05-04T17:59:09.967Z,12.09
2023-05-04T18:01:36.656Z,12.02
2023-05-04T18:04:04.173Z,11.87
2023-05-04T18:06:33.824Z,11.78
2023-05-04T18:09:00.884Z,11.72
2023-05-04T18:11:27.765Z,11.79
2023-05-04T18:13:56.433Z,11.63
2023-05-04T18:16:24.320Z,11.67
2023-05-04T18:18:51.361Z,11.71
2023-05-04T18:21:18.525Z,11.45
2023-05-04T18:23:45.667Z,11.49
2023-05-04T18:26:19.928Z,11.41
2023-05-04T18:28:46.605Z,11.47
2023-05-04T18:31:13.426Z,11.30
2023-05-04T18:33:42.500Z,11.36
2023-05-04T18:36:09.340Z,11.44
2023-05-04T18:38:37.185Z,11.33
2023-05-04T18:41:04.785Z,11.14
2023-05-04T18:43:31.635Z,11.25
2023-05-04T18:45:58.563Z,11.27
2023-05-04T18:48:25.372Z,11.17
2023-05-04T18:50:57.132Z,11.07
2023-05-04T18:53:24.368Z,11.09
2023-05-04T18:56:08.634Z,11.10
2023-05-04T18:58:38.992Z,11.04
2023-05-04T19:01:06.136Z,11.11
2023-05-04T19:03:32.981Z,11.10
2023-05-04T19:05:59.792Z,10.94
2023-05-04T19:08:27.879Z,11.00
2023-05-04T19:10:59.148Z,10.99
2023-05-04T19:13:26.013Z,10.95
2023-05-04T19:15:52.812Z,10.93
2023-05-04T19:18:19.537Z,11.00
2023-05-04T19:20:46.427Z,10.96
2023-05-04T19:23:13.115Z,10.98
2023-05-04T19:25:39.997Z,10.87
2023-05-04T19:28:09.841Z,10.92
2023-05-04T19:30:37.075Z,10.92
2023-05-04T19:33:04.687Z,10.87
2023-05-04T19:35:31.422Z,10.83
2023-05-04T19:37:58.185Z,10.81
2023-05-04T19:40:26.275Z,10.68
2023-05-04T19:42:53.008Z,10.79
2023-05-04T19:45:19.759Z,10.66
2023-05-04T19:47:47.318Z,10.74
2023-05-04T19:50:15.814Z,10.69
2023-05-04T19:52:45.933Z,10.60
2023-05-04T19:55:12.902Z,10.69
2023-05-04T19:57:39.756Z,10.61
2023-05-04T20:00:09.714Z,10.63
2023-05-04T20:02:38.110Z,10.51
2023-05-04T20:05:08.190Z,10.58
2023-05-04T20:07:34.914Z,10.70
2023-05-04T20:10:01.705Z,10.53
2023-05-04T20:12:28.702Z,10.65
2023-05-04T20:14:55.548Z,10.56
2023-05-04T20:17:22.714Z,10.67
2023-05-04T20:19:49.980Z,10.61
2023-05-04T20:22:16.863Z,10.56
2023-05-04T20:24:43.570Z,10.62
2023-05-04T20:27:10.429Z,10.63
2023-05-04T20:29:37.128Z,10.61
2023-05-04T20:32:05.098Z,10.59
2023-05-04T20:34:32.192Z,10.54
2023-05-04T20:36:58.962Z,10.59
2023-05-04T20:39:25.732Z,10.61
2023-05-04T20:41:52.990Z,10.59
2023-05-04T20:44:19.733Z,10.60
2023-05-04T20:46:46.437Z,10.61
2023-05-04T20:49:13.521Z,10.70
2023-05-04T20:51:40.231Z,10.58
2023-05-04T20:54:06.951Z,10.58
2023-05-04T20:56:33.687Z,10.52
2023-05-04T20:59:00.511Z,10.61
2023-05-04T21:01:27.297Z,10.61
2023-05-04T21:03:54.005Z,10.47
2023-05-04T21:06:21.056Z,10.52
2023-05-04T21:08:47.771Z,10.54
2023-05-04T21:11:14.440Z,10.53
2023-05-04T21:13:41.111Z,10.57
2023-05-04T21:16:08.734Z,10.50
2023-05-04T21:18:35.732Z,10.61
2023-05-04T21:21:05.864Z,10.62
2023-05-04T21:23:32.655Z,10.45
2023-05-04T21:26:05.675Z,10.49
2023-05-04T21:28:32.376Z,10.39
2023-05-04T21:30:59.167Z,10.45
2023-05-04T21:33:28.714Z,10.46
2023-05-04T21:35:55.391Z,10.40
2023-05-04T21:38:22.509Z,10.39
2023-05-04T21:40:49.439Z,10.41
2023-05-04T21:43:16.326Z,10.28
2023-05-04T21:45:43.100Z,10.35
2023-05-04T21:48:09.930Z,10.35
2023-05-04T21:50:36.653Z,10.28
2023-05-04T21:53:03.367Z,10.31
2023-05-04T21:55:30.458Z,10.29
2023-05-04T21:57:57.391Z,10.33
2023-05-04T22:00:24.360Z,10.30
2023-05-04T22:02:54.639Z,10.48
2023-05-04T22:05:22.459Z,10.34
2023-05-04T22:07:49.894Z,10.31
2023-05-04T22:10:18.548Z,10.31
2023-05-04T22:12:45.469Z,10.28
2023-05-04T22:15:12.299Z,10.24
2023-05-04T22:17:39.182Z,10.33
2023-05-04T22:20:07.292Z,10.30
2023-05-04T22:22:34.657Z,10.25
2023-05-04T22:25:01.732Z,10.34
2023-05-04T22:27:28.504Z,10.32
2023-05-04T22:29:55.323Z,10.27
2023-05-04T22:32:22.009Z,10.22
2023-05-04T22:34:48.762Z,10.16
2023-05-04T22:37:15.463Z,10.23
2023-05-04T22:39:42.159Z,10.29
2023-05-04T22:42:08.792Z,10.19
2023-05-04T22:44:35.570Z,10.22
2023-05-04T22:47:02.276Z,10.23
2023-05-04T22:49:28.918Z,10.25
2023-05-04T22:51:55.578Z,10.23
2023-05-04T22:54:22.442Z,10.09
2023-05-04T22:56:49.127Z,10.20
2023-05-04T22:59:15.850Z,10.17
2023-05-04T23:01:43.428Z,10.12
2023-05-04T23:04:11.501Z,10.17
2023-05-04T23:06:38.674Z,10.13
2023-05-04T23:09:05.490Z,10.01
2023-05-04T23:11:32.476Z,10.00
2023-05-04T23:13:59.379Z,9.94
2023-05-04T23:16:26.166Z,9.95
2023-05-04T23:18:52.865Z,9.96
2023-05-04T23:21:22.327Z,10.00
2023-05-04T23:23:51.605Z,9.89
2023-05-04T23:26:18.497Z,9.93
2023-05-04T23:28:45.287Z,9.82
2023-05-04T23:31:12.035Z,9.81
2023-05-04T23:33:38.726Z,9.90
2023-05-04T23:36:05.622Z,9.78
2023-05-04T23:38:32.310Z,9.72
2023-05-04T23:41:01.272Z,9.66
2023-05-04T23:43:27.904Z,9.74
2023-05-04T23:46:05.009Z,9.69
2023-05-04T23:48:32.776Z,9.61
2023-05-04T23:51:06.480Z,9.68
2023-05-04T23:53:33.889Z,9.64
2023-05-04T23:56:05.046Z,9.53
2023-05-04T23:58:33.423Z,9.56
